• Join FlightAware (Why Join?)
  • Login
  • US Flag 
04:20PM EDT


 

Airport Tracker/Info


-or-


 

Live Flight TrackerFlight Track Log ✈ CES2343 ✈ 04-Nov-2013 ✈ ZLXY / XIY - ZUUU / CTU

Flight Track Log - Related Links

Times and Time Zones

All times are in EST time to prevent confusion due to time zone crossing. See the CES2343 flight status page for this flight to view local times or setup timezone preferences in your user account.

Time Position Orientation Groundspeed Altitude Reporting Facility
EST Latitude Longitude Course Direction KTS MPH feet Rate Location/Type
07:56AM 31.1260 105.3170 224° Southwest 379 436 19,600  Level FlightAware
07:57AM 31.0860 105.2720 224° Southwest 373 429 19,200 -960 Descending FlightAware
07:58AM 31.0380 105.2160 225° Southwest 367 422 18,500 -1,080 Descending FlightAware
07:58AM 30.9950 105.1670 224° Southwest 362 417 17,900 -780 Descending FlightAware
07:59AM 30.9620 105.1300 224° Southwest 336 387 17,700 -180 Descending FlightAware
07:59AM 30.9110 105.0730 224° Southwest 299 344 17,700 -180 Level FlightAware
08:00AM 30.8760 105.0320 225° Southwest 299 344 17,500 -660 Descending FlightAware
08:01AM 30.8480 104.9970 227° Southwest 292 336 17,000 -1,020 Descending FlightAware
08:01AM 30.8190 104.9350 241° Southwest 297 342 16,300 -1,080 Descending FlightAware
08:02AM 30.7980 104.8920 240° Southwest 299 344 15,700 -1,080 Descending FlightAware
08:02AM 30.7730 104.8410 240° Southwest 295 339 15,100 -1,020 Descending FlightAware
08:03AM 30.7500 104.7910 242° Southwest 298 343 14,500 -1,020 Descending FlightAware
08:04AM 30.7250 104.7400 240° Southwest 291 335 13,900 -1,020 Descending FlightAware
08:04AM 30.6980 104.6840 241° Southwest 286 329 13,200 -780 Descending FlightAware
08:05AM 30.6680 104.6190 242° Southwest 288 331 12,800 -480 Descending FlightAware
08:06AM 30.6400 104.5610 241° Southwest 284 327 12,500 -900 Descending FlightAware
08:06AM 30.6160 104.5120 240° Southwest 282 325 11,600 -1,020 Descending FlightAware
08:07AM 30.5920 104.4590 242° Southwest 280 322 11,200 -300 Descending FlightAware
08:08AM 30.5740 104.4180 243° Southwest 280 322 11,200  Level FlightAware
08:08AM 30.5550 104.3780 241° Southwest 280 322 11,200 -2,040 Level FlightAware
08:09AM 30.5370 104.2860 257° West 288 331 8,600 -1,980 Descending FlightAware
08:10AM 30.5170 104.2250 249° West 283 326 8,400 -720 Descending FlightAware
08:11AM 30.4950 104.1610 248° West 270 311 7,600 -1,020 Descending FlightAware
08:11AM 30.4930 104.1570 240° Southwest 268 308 7,600  Level FlightAware
08:12AM 30.4580 104.0770 243° Southwest 212 244 7,600 -240 Level FlightAware
08:13AM 30.4330 104.0450 228° Southwest 191 220 7,200 -840 Descending FlightAware
08:13AM 30.4140 104.0200 229° Southwest 187 215 6,600 -1,260 Descending FlightAware
08:14AM 30.3850 103.9830 228° Southwest 189 217 5,500 -1,260 Descending FlightAware
08:14AM 30.3740 103.9540 246° West 184 212 4,900 -1,200 Descending FlightAware
08:15AM 30.3720 103.9200 266° West 184 212 4,200 -1,080 Descending FlightAware
08:16AM 30.3790 103.8860 283° West 178 205 3,600 -540 Descending FlightAware
08:16AM 30.4060 103.8770 344° North 178 205 3,600  Level FlightAware
08:17AM 30.4350 103.8810 North 176 203 3,600 -120 Level FlightAware
08:17AM 30.4580 103.8910 21° North 158 182 3,500 -540 Descending FlightAware
08:18AM 30.4820 103.9020 22° Northeast 146 168 3,000 -840 Descending FlightAware
08:18AM 30.5010 103.9110 22° Northeast 139 160 2,600 -780 Descending FlightAware
08:19AM 30.5290 103.9240 22° Northeast 135 155 2,000 -720 Descending FlightAware
08:20AM 30.5520 103.9350 22° Northeast 134 154 1,600 -660 Descending FlightAware
08:20AM 30.5690 103.9430 22° Northeast 130 150 -3,240 Descending FlightAware